Time;durP1;ratioP1;P1;durP2;ratioP2;P2;SDS_P1;SDS_P2;PMS_P1;PMS_P2;Temp;Humidity;BMP_temperature;BMP_pressure;BME280_temperature;BME280_humidity;BME280_pressure;Samples;Min_cycle;Max_cycle;Signal;HPM_P1;HPM_P2
2022/05/27 00:01:10;;;;;;;2.88;0.90;;;14.50;73.70;;;;;;5049199;28;20040;-68
2022/05/27 00:03:36;;;;;;;1.45;1.20;;;14.50;73.90;;;;;;5050175;28;20029;-68
2022/05/27 00:06:02;;;;;;;1.20;1.10;;;14.50;74.00;;;;;;5045596;28;20068;-68
2022/05/27 00:08:28;;;;;;;1.33;1.10;;;14.40;74.00;;;;;;5049800;28;20128;-68
2022/05/27 00:10:59;;;;;;;1.40;1.00;;;14.40;74.00;;;;;;5048201;28;20670;-68
2022/05/27 00:13:24;;;;;;;0.85;0.70;;;14.30;74.20;;;;;;5043147;28;20045;-68
2022/05/27 00:15:50;;;;;;;0.93;0.93;;;14.30;74.20;;;;;;5050335;28;20036;-68
2022/05/27 00:18:16;;;;;;;0.90;0.80;;;14.20;74.20;;;;;;5049525;28;20125;-68
2022/05/27 00:20:42;;;;;;;2.63;1.00;;;14.10;74.40;;;;;;5045632;28;20373;-68
2022/05/27 00:23:08;;;;;;;0.90;0.90;;;14.10;74.70;;;;;;5046110;28;20044;-68
2022/05/27 00:25:33;;;;;;;1.10;0.90;;;14.10;74.80;;;;;;5047025;28;20037;-68
2022/05/27 00:28:00;;;;;;;1.88;1.20;;;14.00;74.90;;;;;;5050580;28;20041;-68
2022/05/27 00:30:26;;;;;;;1.67;1.02;;;14.00;75.00;;;;;;5045828;28;20420;-68
2022/05/27 00:32:53;;;;;;;1.33;0.98;;;14.00;74.90;;;;;;5049799;28;20692;-68
2022/05/27 00:35:19;;;;;;;1.17;1.08;;;14.00;75.10;;;;;;5051931;28;20032;-67
2022/05/27 00:37:44;;;;;;;0.90;0.90;;;14.00;75.10;;;;;;5050433;28;20052;-69
2022/05/27 00:40:11;;;;;;;2.13;1.13;;;14.00;75.10;;;;;;5050287;28;20033;-68
2022/05/27 00:42:41;;;;;;;1.30;1.05;;;14.00;75.00;;;;;;5050642;28;20467;-68
2022/05/27 00:45:12;;;;;;;1.52;1.10;;;14.10;75.30;;;;;;5048914;28;20151;-66
2022/05/27 00:47:39;;;;;;;1.30;1.20;;;14.00;74.90;;;;;;5053053;28;20455;-69
2022/05/27 00:50:08;;;;;;;0.90;0.90;;;14.00;74.80;;;;;;5051325;28;20299;-68
2022/05/27 00:52:37;;;;;;;1.35;1.10;;;14.00;74.70;;;;;;5051264;28;20116;-68
2022/05/27 00:55:06;;;;;;;1.30;1.20;;;14.00;74.90;;;;;;5053028;28;20032;-67
2022/05/27 00:57:50;;;;;;;1.50;1.40;;;14.00;75.00;;;;;;5058244;28;20078;-68
2022/05/27 01:00:20;;;;;;;1.30;1.20;;;13.90;75.40;;;;;;5048316;28;20571;-67
2022/05/27 01:02:46;;;;;;;3.25;1.40;;;13.90;75.20;;;;;;5057667;28;20440;-68
2022/05/27 01:05:15;;;;;;;2.45;1.08;;;13.90;75.40;;;;;;5050138;28;20243;-68
2022/05/27 01:07:40;;;;;;;1.55;1.17;;;13.90;75.80;;;;;;5053452;28;20679;-68
2022/05/27 01:10:09;;;;;;;1.40;1.30;;;13.90;75.90;;;;;;5052500;28;20051;-68
2022/05/27 01:13:00;;;;;;;1.15;1.10;;;13.90;76.00;;;;;;5044892;28;20037;-68
2022/05/27 01:15:58;;;;;;;3.80;1.27;;;13.90;76.40;;;;;;5049162;28;20508;-68
2022/05/27 01:21:38;;;;;;;1.43;1.20;;;13.90;76.00;;;;;;5048212;28;20032;-68
2022/05/27 01:24:22;;;;;;;1.30;1.20;;;13.90;75.90;;;;;;5058882;28;20025;-68
2022/05/27 01:27:15;;;;;;;1.20;1.10;;;13.90;76.50;;;;;;5049823;28;20120;-68
2022/05/27 01:30:14;;;;;;;1.67;1.10;;;13.90;76.30;;;;;;5051545;28;20685;-68
2022/05/27 01:32:50;;;;;;;1.20;1.10;;;13.90;76.80;;;;;;5051573;28;20054;-68
2022/05/27 01:35:34;;;;;;;1.48;1.20;;;13.90;76.60;;;;;;5053574;28;20101;-68
2022/05/27 01:38:09;;;;;;;1.58;1.40;;;13.80;77.30;;;;;;5057382;28;20037;-68
2022/05/27 01:40:44;;;;;;;1.33;1.23;;;13.80;77.20;;;;;;5046203;28;20040;-68
2022/05/27 01:43:15;;;;;;;2.28;1.02;;;13.90;76.80;;;;;;5050346;28;20708;-68
2022/05/27 01:45:53;;;;;;;1.70;1.30;;;13.90;76.90;;;;;;5052651;28;20033;-68
2022/05/27 01:48:32;;;;;;;1.33;1.23;;;13.90;77.40;;;;;;5049204;28;20040;-68
2022/05/27 01:51:06;;;;;;;1.63;1.20;;;13.90;77.30;;;;;;5051446;28;20029;-67
2022/05/27 01:53:53;;;;;;;1.15;1.15;;;14.00;77.30;;;;;;5052888;28;20083;-67
2022/05/27 01:56:43;;;;;;;1.65;1.17;;;14.00;77.30;;;;;;5052563;28;20033;-68
2022/05/27 01:59:23;;;;;;;2.67;1.20;;;14.10;77.30;;;;;;5053822;28;20408;-68
2022/05/27 02:01:55;;;;;;;1.45;1.13;;;14.10;77.20;;;;;;5054263;28;20041;-68
2022/05/27 02:04:53;;;;;;;1.40;1.30;;;14.20;77.30;;;;;;5053976;28;20086;-69
2022/05/27 02:07:26;;;;;;;1.90;1.38;;;14.20;77.40;;;;;;5046957;28;20478;-67
2022/05/27 02:09:58;;;;;;;1.25;1.08;;;14.20;77.30;;;;;;5050803;28;20093;-68
2022/05/27 02:12:30;;;;;;;1.38;1.27;;;14.20;77.10;;;;;;5050042;28;20043;-68
2022/05/27 02:15:01;;;;;;;2.10;1.25;;;14.30;77.20;;;;;;5050973;28;21156;-67
2022/05/27 02:17:39;;;;;;;3.90;1.23;;;14.30;77.20;;;;;;5051705;28;20111;-67
2022/05/27 02:20:12;;;;;;;1.35;1.20;;;14.30;77.20;;;;;;5051148;28;20048;-68
2022/05/27 02:22:48;;;;;;;1.30;1.20;;;14.30;77.60;;;;;;5065264;28;20025;-68
2022/05/27 02:25:19;;;;;;;1.27;1.17;;;14.40;77.20;;;;;;5045956;28;20033;-68
2022/05/27 02:27:54;;;;;;;1.35;1.25;;;14.40;77.00;;;;;;5053588;28;20141;-68
2022/05/27 02:30:23;;;;;;;1.17;1.10;;;14.40;77.00;;;;;;5051823;28;20495;-68
2022/05/27 02:35:07;;;;;;;2.08;1.23;;;14.40;77.10;;;;;;5050327;28;20048;-68
2022/05/27 02:35:44;;;;;;;2.42;1.10;;;14.40;76.60;;;;;;5052418;28;20036;-68
2022/05/27 02:38:10;;;;;;;1.23;1.13;;;14.50;76.60;;;;;;5052988;28;20657;-68
2022/05/27 02:40:49;;;;;;;2.45;1.10;;;14.50;76.50;;;;;;5046815;28;20035;-68
2022/05/27 02:43:30;;;;;;;1.42;1.33;;;14.50;76.50;;;;;;5049668;28;20033;-67
2022/05/27 02:46:13;;;;;;;1.20;1.05;;;14.50;76.50;;;;;;5052557;28;20040;-68
2022/05/27 02:48:50;;;;;;;1.42;1.25;;;14.60;76.30;;;;;;5051950;28;20036;-68
2022/05/27 02:51:19;;;;;;;2.00;1.10;;;14.60;76.40;;;;;;5050458;28;20090;-64
2022/05/27 02:53:54;;;;;;;1.20;1.10;;;14.60;76.50;;;;;;5046127;28;20055;-67
2022/05/27 02:56:30;;;;;;;3.85;1.23;;;14.60;76.50;;;;;;5056535;28;20024;-68
2022/05/27 02:58:56;;;;;;;2.10;1.38;;;14.70;77.20;;;;;;5051865;28;20101;-67
2022/05/27 03:01:22;;;;;;;1.40;1.27;;;14.70;76.30;;;;;;5050784;28;20504;-67
2022/05/27 03:03:47;;;;;;;3.05;1.20;;;14.70;76.30;;;;;;5047256;28;20052;-68
2022/05/27 03:06:40;;;;;;;2.17;1.30;;;14.80;76.30;;;;;;5052559;28;20708;-68
2022/05/27 03:09:28;;;;;;;1.38;1.27;;;14.80;76.30;;;;;;5049157;28;20052;-68
2022/05/27 03:12:21;;;;;;;1.10;0.88;;;14.90;76.10;;;;;;5051861;28;20076;-67
2022/05/27 03:14:56;;;;;;;1.05;1.00;;;14.90;76.30;;;;;;5047811;28;20045;-69
2022/05/27 03:17:30;;;;;;;2.47;1.00;;;14.90;76.00;;;;;;5050982;28;20044;-68
2022/05/27 03:20:08;;;;;;;1.20;1.10;;;14.90;75.70;;;;;;5046375;28;20033;-68
2022/05/27 03:23:08;;;;;;;1.88;1.38;;;15.00;75.70;;;;;;5049585;28;20036;-67
2022/05/27 03:25:49;;;;;;;1.98;1.20;;;14.90;75.20;;;;;;5045083;28;20080;-68
2022/05/27 03:28:30;;;;;;;0.88;0.82;;;14.90;75.00;;;;;;5051980;28;20112;-68
2022/05/27 03:31:31;;;;;;;1.10;0.95;;;14.90;75.10;;;;;;5050533;28;20047;-67
2022/05/27 03:34:00;;;;;;;1.05;0.80;;;14.80;75.10;;;;;;5050323;28;20029;-68
2022/05/27 03:37:07;;;;;;;1.50;0.93;;;14.80;75.30;;;;;;5049123;28;20065;-67
2022/05/27 03:39:56;;;;;;;1.73;0.90;;;14.70;75.20;;;;;;5041404;28;20583;-68
2022/05/27 03:42:24;;;;;;;2.78;1.20;;;14.70;75.10;;;;;;5048879;28;20029;-68
2022/05/27 03:45:02;;;;;;;1.73;0.85;;;14.60;75.20;;;;;;5049925;28;20044;-68
2022/05/27 03:47:27;;;;;;;2.88;1.00;;;14.60;75.40;;;;;;5047982;28;20032;-66
2022/05/27 03:49:53;;;;;;;1.05;0.80;;;14.60;75.50;;;;;;5048605;28;20037;-68
2022/05/27 03:52:23;;;;;;;1.05;0.80;;;14.50;75.40;;;;;;5052994;28;20077;-68
2022/05/27 03:54:49;;;;;;;2.00;1.00;;;14.50;75.40;;;;;;5046703;28;20045;-68
2022/05/27 03:57:14;;;;;;;0.95;0.95;;;14.40;75.60;;;;;;5047489;28;20527;-67
2022/05/27 03:59:40;;;;;;;1.10;1.02;;;14.40;75.90;;;;;;5049866;28;20037;-68
2022/05/27 04:02:06;;;;;;;0.93;0.90;;;14.40;75.90;;;;;;5048651;28;20033;-68
2022/05/27 04:04:31;;;;;;;1.85;0.90;;;14.40;75.90;;;;;;5049568;28;20032;-66
2022/05/27 04:06:57;;;;;;;2.58;1.00;;;14.40;75.80;;;;;;5050713;28;20396;-68
2022/05/27 04:09:25;;;;;;;2.45;0.88;;;14.40;75.80;;;;;;5046641;28;20025;-68
2022/05/27 04:11:51;;;;;;;0.88;0.88;;;14.30;75.80;;;;;;5048103;28;20142;-68
2022/05/27 04:14:18;;;;;;;5.10;1.10;;;14.30;76.00;;;;;;5047440;28;20036;-68
2022/05/27 04:16:44;;;;;;;3.20;0.90;;;14.30;76.10;;;;;;5045952;28;20029;-67
2022/05/27 04:19:10;;;;;;;0.80;0.80;;;14.40;76.20;;;;;;5056401;28;20601;-66
2022/05/27 04:21:39;;;;;;;1.65;0.98;;;14.40;76.30;;;;;;5053059;28;20574;-67
2022/05/27 04:24:05;;;;;;;2.55;0.90;;;14.40;76.30;;;;;;5056148;28;20036;-68
2022/05/27 04:26:31;;;;;;;0.82;0.82;;;14.40;76.20;;;;;;5049921;28;20547;-68
2022/05/27 04:28:57;;;;;;;1.10;0.90;;;14.50;76.20;;;;;;5052617;28;20071;-68
2022/05/27 04:31:22;;;;;;;2.10;1.23;;;14.50;76.20;;;;;;5053516;28;20460;-68
2022/05/27 04:33:48;;;;;;;1.20;0.90;;;14.50;76.10;;;;;;5051083;28;20040;-68
2022/05/27 04:36:15;;;;;;;2.95;1.48;;;14.50;76.00;;;;;;5051757;28;20055;-68
2022/05/27 04:38:41;;;;;;;3.47;1.33;;;14.60;76.00;;;;;;5050695;28;20037;-67
2022/05/27 04:41:07;;;;;;;2.97;1.20;;;14.60;76.00;;;;;;5050620;28;20029;-68
2022/05/27 04:43:35;;;;;;;3.58;0.85;;;14.70;76.10;;;;;;5055233;28;20136;-67
2022/05/27 04:46:01;;;;;;;5.90;1.00;;;14.70;76.10;;;;;;5049668;28;20047;-68
2022/05/27 04:48:27;;;;;;;1.52;0.80;;;14.80;76.20;;;;;;5050029;28;20041;-68
2022/05/27 04:50:52;;;;;;;2.20;0.80;;;14.80;76.10;;;;;;5050274;28;20047;-68
2022/05/27 04:53:18;;;;;;;1.20;0.80;;;14.90;76.10;;;;;;5052208;28;20043;-68
2022/05/27 04:55:44;;;;;;;1.83;1.10;;;14.90;76.00;;;;;;5049847;28;20040;-68
2022/05/27 04:58:11;;;;;;;1.45;0.90;;;15.00;76.00;;;;;;5050586;28;20033;-68
2022/05/27 05:00:58;;;;;;;1.35;1.00;;;15.00;76.00;;;;;;5049224;28;20389;-68
2022/05/27 05:03:23;;;;;;;0.98;0.95;;;15.10;76.40;;;;;;5047958;28;20530;-68
2022/05/27 05:05:49;;;;;;;3.63;0.93;;;15.10;76.00;;;;;;5049906;28;20314;-68
2022/05/27 05:08:36;;;;;;;2.05;0.90;;;15.10;75.90;;;;;;5049537;28;20036;-64
2022/05/27 05:11:04;;;;;;;2.08;0.98;;;15.20;75.70;;;;;;5049138;28;20040;-68
2022/05/27 05:13:31;;;;;;;2.05;1.13;;;15.20;75.90;;;;;;5048819;28;20040;-68
2022/05/27 05:15:58;;;;;;;2.25;0.95;;;15.30;76.10;;;;;;5051758;28;20028;-68
2022/05/27 05:18:24;;;;;;;2.03;1.10;;;15.40;76.50;;;;;;5049963;28;20079;-68
2022/05/27 05:20:50;;;;;;;1.63;1.13;;;15.40;76.50;;;;;;5052758;28;20037;-68
2022/05/27 05:23:16;;;;;;;2.63;1.20;;;15.50;76.50;;;;;;5050427;28;20514;-65
2022/05/27 05:25:41;;;;;;;1.95;1.20;;;15.50;76.40;;;;;;5051604;28;20483;-67
2022/05/27 05:28:07;;;;;;;1.50;1.40;;;15.60;76.60;;;;;;5050636;28;20448;-68
2022/05/27 05:30:32;;;;;;;1.13;0.98;;;15.60;76.60;;;;;;5050036;28;20443;-68
2022/05/27 05:32:58;;;;;;;1.48;1.00;;;15.60;76.60;;;;;;5050467;28;20093;-68
2022/05/27 05:35:24;;;;;;;1.45;0.88;;;15.70;76.60;;;;;;5050550;28;20488;-68
2022/05/27 05:37:50;;;;;;;1.42;0.95;;;15.80;76.30;;;;;;5053227;28;20123;-67
2022/05/27 05:40:16;;;;;;;1.90;0.90;;;15.90;76.10;;;;;;5051702;28;20659;-68
2022/05/27 05:42:42;;;;;;;1.45;1.10;;;15.90;76.00;;;;;;5050407;28;20500;-68
2022/05/27 05:45:12;;;;;;;1.58;1.00;;;16.00;75.80;;;;;;5051191;28;20062;-67
2022/05/27 05:47:37;;;;;;;4.78;1.30;;;16.10;75.50;;;;;;5050062;28;20060;-67
2022/05/27 05:50:04;;;;;;;5.45;1.30;;;16.20;75.50;;;;;;5051357;28;20828;-68
2022/05/27 05:52:29;;;;;;;3.65;1.50;;;16.30;75.20;;;;;;5047750;28;20032;-67
2022/05/27 05:54:55;;;;;;;0.90;0.90;;;16.40;74.90;;;;;;5050275;28;20408;-67
2022/05/27 05:57:21;;;;;;;2.13;1.15;;;16.50;74.70;;;;;;5051968;28;20037;-67
2022/05/27 05:59:47;;;;;;;3.00;1.00;;;16.50;74.00;;;;;;5050977;28;20066;-67
2022/05/27 06:02:13;;;;;;;1.40;0.93;;;16.60;74.00;;;;;;5052400;28;20033;-68
2022/05/27 06:04:38;;;;;;;1.33;1.20;;;16.60;73.30;;;;;;5048314;28;20047;-67
2022/05/27 06:07:05;;;;;;;2.75;1.13;;;16.70;73.10;;;;;;5050806;28;20616;-68
2022/05/27 06:09:30;;;;;;;1.85;1.00;;;16.70;72.80;;;;;;5055467;28;20032;-67
2022/05/27 06:11:57;;;;;;;1.45;0.90;;;16.80;72.80;;;;;;5057916;28;20090;-68
2022/05/27 06:14:23;;;;;;;2.30;0.93;;;16.80;72.30;;;;;;5052218;28;20047;-66
2022/05/27 06:16:49;;;;;;;2.67;1.20;;;16.90;72.20;;;;;;5047356;28;20642;-67
2022/05/27 06:19:15;;;;;;;3.05;1.23;;;16.90;72.10;;;;;;5050966;28;20309;-67
2022/05/27 06:21:41;;;;;;;2.80;1.10;;;16.90;72.10;;;;;;5050384;28;20033;-67
2022/05/27 06:24:07;;;;;;;1.48;1.23;;;16.90;72.10;;;;;;5051427;28;20036;-67
2022/05/27 06:26:32;;;;;;;2.70;1.40;;;17.00;72.10;;;;;;5059686;28;20037;-67
2022/05/27 06:34:27;;;;;;;1.67;1.00;;;17.20;71.40;;;;;;5048535;28;20044;-67
2022/05/27 06:37:09;;;;;;;2.05;1.00;;;17.20;71.40;;;;;;5050531;28;20283;-68
2022/05/27 06:39:37;;;;;;;2.33;0.95;;;17.30;70.70;;;;;;5049056;28;20039;-67
2022/05/27 06:42:08;;;;;;;1.52;1.10;;;17.30;71.20;;;;;;5052045;28;20028;-67
2022/05/27 06:44:35;;;;;;;1.95;1.30;;;17.40;71.30;;;;;;5047608;28;20451;-66
2022/05/27 06:47:00;;;;;;;1.80;1.05;;;17.40;70.90;;;;;;5048541;28;20504;-67
2022/05/27 06:49:26;;;;;;;6.82;1.52;;;17.40;70.70;;;;;;5048578;28;20043;-68
2022/05/27 06:51:51;;;;;;;1.63;1.20;;;17.50;70.60;;;;;;5044876;28;20079;-65
2022/05/27 06:54:19;;;;;;;1.38;0.93;;;17.50;70.30;;;;;;5034939;28;20043;-66
2022/05/27 06:56:47;;;;;;;1.25;0.95;;;17.60;70.50;;;;;;5039062;28;20317;-67
2022/05/27 06:59:14;;;;;;;1.52;1.10;;;17.70;70.50;;;;;;5043326;28;20028;-67
2022/05/27 07:01:40;;;;;;;1.40;1.00;;;17.70;70.40;;;;;;5041564;28;20098;-68
2022/05/27 07:04:06;;;;;;;2.83;1.42;;;17.80;70.10;;;;;;5042895;28;20044;-66
2022/05/27 07:06:37;;;;;;;3.58;1.10;;;17.90;70.00;;;;;;5037110;28;20056;-66
2022/05/27 07:09:05;;;;;;;3.00;1.13;;;17.90;69.10;;;;;;5037687;28;20055;-68
2022/05/27 07:11:31;;;;;;;4.50;1.40;;;18.00;69.00;;;;;;5039272;28;20528;-67
2022/05/27 07:13:57;;;;;;;1.40;1.10;;;18.10;69.00;;;;;;5045381;28;20090;-67
2022/05/27 07:16:23;;;;;;;1.73;1.25;;;18.20;68.60;;;;;;5045871;28;20033;-67
2022/05/27 07:18:48;;;;;;;3.72;1.00;;;18.20;68.10;;;;;;5038603;28;20602;-67
2022/05/27 07:21:14;;;;;;;1.42;1.10;;;18.30;68.10;;;;;;5039297;28;20036;-67
2022/05/27 07:23:40;;;;;;;1.40;1.02;;;18.40;68.50;;;;;;5037101;28;20036;-67
2022/05/27 07:26:05;;;;;;;1.52;0.98;;;18.50;68.40;;;;;;5041246;28;20036;-64
2022/05/27 07:28:31;;;;;;;2.88;1.10;;;18.50;68.10;;;;;;5039676;28;20039;-67
2022/05/27 07:31:01;;;;;;;2.90;1.10;;;18.60;68.00;;;;;;5045332;28;20503;-68
2022/05/27 07:33:27;;;;;;;1.00;0.90;;;18.60;67.80;;;;;;5034024;28;20081;-67
2022/05/27 07:35:53;;;;;;;1.15;1.00;;;18.70;67.50;;;;;;5042538;28;20064;-67
2022/05/27 07:38:18;;;;;;;2.53;1.20;;;18.70;67.50;;;;;;5038211;28;20131;-68
2022/05/27 07:40:44;;;;;;;1.67;1.00;;;18.80;67.10;;;;;;5041061;28;20041;-65
2022/05/27 07:43:10;;;;;;;2.05;0.90;;;18.90;67.00;;;;;;5044772;28;20037;-68
2022/05/27 07:45:39;;;;;;;2.50;1.20;;;18.90;67.10;;;;;;5047974;28;21160;-67
2022/05/27 07:48:05;;;;;;;1.45;0.93;;;19.00;66.00;;;;;;5051980;28;20435;-68
2022/05/27 07:50:31;;;;;;;2.35;1.00;;;19.00;65.90;;;;;;5051769;28;20435;-68
2022/05/27 07:52:57;;;;;;;1.33;0.95;;;19.10;66.80;;;;;;5057697;28;20037;-67
2022/05/27 07:55:23;;;;;;;2.45;1.05;;;19.20;66.40;;;;;;5059730;28;20032;-67
2022/05/27 07:57:49;;;;;;;3.63;0.85;;;19.20;66.20;;;;;;5058219;28;20041;-67
2022/05/27 08:00:20;;;;;;;2.80;1.00;;;19.30;66.20;;;;;;5058762;28;20554;-67
2022/05/27 08:02:47;;;;;;;2.25;1.33;;;19.40;65.40;;;;;;5050569;28;20039;-67
2022/05/27 08:05:16;;;;;;;2.42;1.20;;;19.40;66.00;;;;;;5058352;28;20520;-67
2022/05/27 08:07:42;;;;;;;3.58;1.20;;;19.50;65.80;;;;;;5053850;28;20024;-68
2022/05/27 08:10:15;;;;;;;2.03;1.20;;;19.60;65.70;;;;;;5055029;28;20030;-67
2022/05/27 08:12:41;;;;;;;1.73;1.00;;;19.70;66.00;;;;;;5051137;28;20127;-67
2022/05/27 08:15:08;;;;;;;1.88;1.20;;;19.70;66.40;;;;;;5049322;28;20037;-68
2022/05/27 08:17:35;;;;;;;2.72;1.23;;;19.80;65.30;;;;;;5046817;28;20029;-67
2022/05/27 08:20:01;;;;;;;3.13;1.20;;;19.80;64.60;;;;;;5048721;28;20037;-67
2022/05/27 08:22:27;;;;;;;9.00;1.00;;;19.90;63.90;;;;;;5051547;28;20033;-67
2022/05/27 08:24:53;;;;;;;2.50;1.00;;;19.90;63.80;;;;;;5051121;28;20111;-66
2022/05/27 08:32:47;;;;;;;1.63;1.10;;;20.10;64.20;;;;;;6003766;23;20020;-64
2022/05/27 08:38:01;;;;;;;;;;;20.20;64.00;;;;;;4970905;28;20118;-68
2022/05/27 08:40:32;;;;;;;1.45;1.10;;;20.30;61.80;;;;;;4971796;28;19917;-68
2022/05/27 08:43:13;;;;;;;1.10;1.00;;;20.30;62.90;;;;;;4967589;28;20031;-67
2022/05/27 08:45:53;;;;;;;2.45;1.10;;;20.40;60.60;;;;;;4955951;28;20034;-66
2022/05/27 08:48:21;;;;;;;1.45;1.05;;;20.40;61.60;;;;;;4951835;28;20027;-66
2022/05/27 08:50:52;;;;;;;3.28;1.17;;;20.50;62.10;;;;;;4952809;28;20410;-67
2022/05/27 08:53:43;;;;;;;1.60;0.80;;;20.50;61.50;;;;;;4950687;28;20122;-66
2022/05/27 09:02:27;;;;;;;1.33;0.88;;;20.80;62.00;;;;;;4954841;28;20371;-68
2022/05/27 09:05:15;;;;;;;1.52;0.60;;;20.90;60.60;;;;;;4955824;28;20047;-68
2022/05/27 09:08:03;;;;;;;1.40;0.73;;;21.00;60.30;;;;;;4959000;28;20038;-68
2022/05/27 09:10:51;;;;;;;1.60;0.88;;;21.10;59.50;;;;;;4950163;28;20490;-68
2022/05/27 09:13:21;;;;;;;1.48;0.60;;;21.20;59.00;;;;;;4959540;28;20035;-67
2022/05/27 09:16:00;;;;;;;2.97;0.90;;;21.30;60.20;;;;;;4959421;28;20038;-67
2022/05/27 09:18:39;;;;;;;1.27;0.80;;;21.40;59.50;;;;;;4959329;28;20054;-67
2022/05/27 09:21:24;;;;;;;1.30;0.80;;;21.50;58.60;;;;;;4961799;28;20085;-67
2022/05/27 09:23:50;;;;;;;2.92;0.73;;;21.60;58.50;;;;;;4960582;28;20062;-69
2022/05/27 09:26:27;;;;;;;0.95;0.57;;;21.70;59.60;;;;;;4961338;28;20027;-68
2022/05/27 09:29:23;;;;;;;1.27;0.80;;;21.80;59.00;;;;;;4959566;28;20057;-68
2022/05/27 09:32:14;;;;;;;1.75;0.90;;;22.00;58.10;;;;;;4961302;28;20042;-68
2022/05/27 09:34:43;;;;;;;1.75;0.90;;;22.10;57.70;;;;;;4957342;28;20318;-67
2022/05/27 09:37:15;;;;;;;1.70;0.82;;;22.20;57.90;;;;;;4964562;28;20026;-68
2022/05/27 09:39:41;;;;;;;0.98;0.60;;;22.30;57.90;;;;;;4963929;28;20024;-69
2022/05/27 09:42:29;;;;;;;1.50;0.77;;;22.30;57.80;;;;;;4958354;28;20041;-68
2022/05/27 09:44:57;;;;;;;1.00;0.80;;;22.20;57.10;;;;;;4958850;28;20064;-68
2022/05/27 09:47:28;;;;;;;1.10;0.60;;;22.20;58.10;;;;;;4958546;28;20522;-68
2022/05/27 09:50:00;;;;;;;0.60;0.60;;;22.10;57.50;;;;;;4956838;28;20502;-69
2022/05/27 09:52:29;;;;;;;1.58;0.70;;;22.00;57.40;;;;;;4957198;28;20118;-68
2022/05/27 09:55:12;;;;;;;2.13;0.65;;;22.00;57.70;;;;;;4958892;28;20074;-68
2022/05/27 09:57:53;;;;;;;1.60;0.90;;;21.90;57.90;;;;;;4959025;28;20031;-67
2022/05/27 10:00:34;;;;;;;1.60;0.80;;;21.90;58.50;;;;;;4959057;28;20035;-68
2022/05/27 10:03:00;;;;;;;0.98;0.63;;;21.90;57.30;;;;;;4958794;28;20043;-68
2022/05/27 10:05:28;;;;;;;2.30;0.70;;;21.90;58.60;;;;;;4959824;28;20390;-68
2022/05/27 10:07:57;;;;;;;0.73;0.57;;;21.90;59.00;;;;;;4959559;28;20379;-68
2022/05/27 10:10:31;;;;;;;0.98;0.52;;;22.00;58.60;;;;;;4960865;28;20065;-68
2022/05/27 10:13:16;;;;;;;1.08;0.75;;;22.00;58.50;;;;;;4954478;28;20174;-69
2022/05/27 10:15:42;;;;;;;1.27;0.77;;;22.00;58.00;;;;;;4957016;28;20494;-69
2022/05/27 10:18:15;;;;;;;1.90;0.65;;;22.00;57.80;;;;;;4956879;28;20042;-68
2022/05/27 10:20:42;;;;;;;1.25;0.63;;;22.00;57.10;;;;;;4955553;28;20027;-67
2022/05/27 10:23:11;;;;;;;1.17;0.60;;;22.00;57.60;;;;;;4956471;28;20045;-67
2022/05/27 10:25:43;;;;;;;1.60;0.60;;;22.00;57.70;;;;;;4963654;28;20102;-68
2022/05/27 10:28:21;;;;;;;1.95;0.70;;;22.00;57.50;;;;;;4957903;28;20528;-68
2022/05/27 10:31:00;;;;;;;0.63;0.50;;;21.90;57.60;;;;;;4955689;28;20066;-68
2022/05/27 10:33:47;;;;;;;1.20;0.70;;;21.90;57.20;;;;;;4955979;28;20162;-68
2022/05/27 10:36:24;;;;;;;1.10;0.50;;;21.90;57.10;;;;;;4956354;28;20172;-67
2022/05/27 10:39:05;;;;;;;1.00;0.70;;;21.90;57.30;;;;;;4955483;28;20090;-68
2022/05/27 10:42:05;;;;;;;1.08;0.60;;;21.90;56.80;;;;;;4959269;28;20050;-68
2022/05/27 10:44:36;;;;;;;0.80;0.60;;;21.90;57.00;;;;;;4956718;28;20050;-67
2022/05/27 10:47:04;;;;;;;1.08;0.60;;;21.90;58.00;;;;;;4957822;28;20050;-68
2022/05/27 10:50:11;;;;;;;1.98;0.85;;;21.90;57.60;;;;;;4957555;28;20167;-68
2022/05/27 10:52:45;;;;;;;0.60;0.52;;;21.90;56.20;;;;;;4915935;29;20147;-68
2022/05/27 10:55:23;;;;;;;0.73;0.65;;;21.90;57.70;;;;;;4952235;28;20047;-68
2022/05/27 11:04:05;;;;;;;1.25;0.90;;;22.00;57.90;;;;;;4956501;28;20050;-68
2022/05/27 11:06:49;;;;;;;1.67;0.95;;;22.00;58.20;;;;;;4955838;28;20031;-68
2022/05/27 11:09:21;;;;;;;0.95;0.63;;;22.10;57.80;;;;;;4953661;28;20027;-68
2022/05/27 11:11:50;;;;;;;1.00;0.90;;;22.10;58.00;;;;;;4949149;28;20049;-66
2022/05/27 11:17:50;;;;;;;2.35;0.95;;;22.20;57.40;;;;;;4957106;28;20046;-68
2022/05/27 11:20:24;;;;;;;3.35;0.90;;;22.20;56.00;;;;;;4961938;28;20499;-68
2022/05/27 11:22:59;;;;;;;2.45;1.00;;;22.30;57.30;;;;;;4957344;28;20093;-68
2022/05/27 11:25:43;;;;;;;1.75;0.80;;;22.30;56.50;;;;;;4956340;28;20039;-68
2022/05/27 11:28:33;;;;;;;3.30;0.90;;;22.30;57.50;;;;;;4954656;28;20516;-68
2022/05/27 11:31:25;;;;;;;2.10;0.68;;;22.30;56.10;;;;;;4956263;28;20031;-68
2022/05/27 11:33:55;;;;;;;0.85;0.77;;;22.40;56.20;;;;;;4957256;28;20087;-68
2022/05/27 11:36:30;;;;;;;1.23;0.70;;;22.40;56.70;;;;;;4955805;28;20717;-68
2022/05/27 11:38:56;;;;;;;0.98;0.70;;;22.50;57.00;;;;;;4956992;28;20035;-68
2022/05/27 11:41:25;;;;;;;1.83;0.70;;;22.50;57.10;;;;;;4957613;28;20081;-68
2022/05/27 11:43:56;;;;;;;0.90;0.80;;;22.50;57.40;;;;;;4963397;28;20031;-68
2022/05/27 11:46:28;;;;;;;0.73;0.70;;;22.60;57.40;;;;;;4955457;28;20039;-67
2022/05/27 11:49:21;;;;;;;1.30;0.80;;;22.70;56.80;;;;;;4956537;28;20030;-69
2022/05/27 11:51:49;;;;;;;1.05;0.68;;;22.70;55.60;;;;;;4956892;28;20454;-69
2022/05/27 11:54:15;;;;;;;1.65;0.73;;;22.80;56.80;;;;;;4957020;28;20036;-69
2022/05/27 11:56:52;;;;;;;2.58;0.98;;;22.80;57.00;;;;;;4956359;28;20031;-67
2022/05/27 11:59:20;;;;;;;1.48;0.70;;;22.80;56.50;;;;;;4956546;28;20111;-68
2022/05/27 12:01:49;;;;;;;1.50;0.70;;;22.90;56.10;;;;;;4956286;28;20054;-68
2022/05/27 12:04:38;;;;;;;1.10;0.70;;;22.90;55.90;;;;;;4955769;28;20401;-68
2022/05/27 12:07:04;;;;;;;0.90;0.70;;;22.90;56.00;;;;;;4956710;28;20055;-69
2022/05/27 12:09:44;;;;;;;1.33;0.65;;;22.90;56.40;;;;;;4957313;28;20106;-67
2022/05/27 12:12:30;;;;;;;0.80;0.70;;;23.00;54.50;;;;;;4954403;28;20043;-69
2022/05/27 12:15:14;;;;;;;3.97;1.00;;;23.00;55.00;;;;;;4957113;28;20514;-68
2022/05/27 12:17:44;;;;;;;0.60;0.60;;;23.00;55.30;;;;;;4958025;28;20109;-66
2022/05/27 12:20:16;;;;;;;0.90;0.70;;;23.00;56.00;;;;;;4956283;28;20117;-70
2022/05/27 12:22:41;;;;;;;0.90;0.73;;;23.10;56.00;;;;;;4956260;28;20041;-67
2022/05/27 12:25:16;;;;;;;0.93;0.70;;;23.10;55.70;;;;;;4954638;28;20039;-69
2022/05/27 12:27:42;;;;;;;0.82;0.60;;;23.20;55.10;;;;;;4951170;28;20066;-68
2022/05/27 12:30:11;;;;;;;1.77;0.70;;;23.20;55.50;;;;;;4956909;28;20039;-69
2022/05/27 12:32:41;;;;;;;1.50;0.80;;;23.30;55.20;;;;;;4952029;28;20031;-69
2022/05/27 12:35:31;;;;;;;1.30;0.77;;;23.40;54.50;;;;;;4956824;28;20049;-67
2022/05/27 12:38:22;;;;;;;1.13;0.63;;;23.40;53.00;;;;;;4957204;28;20093;-70
2022/05/27 12:40:49;;;;;;;0.90;0.85;;;23.50;53.70;;;;;;4960746;28;20760;-69
2022/05/27 12:43:26;;;;;;;0.82;0.70;;;23.50;54.00;;;;;;4953480;28;20030;-70
2022/05/27 12:46:00;;;;;;;1.05;0.80;;;23.50;52.80;;;;;;4960323;28;20031;-68
2022/05/27 12:48:36;;;;;;;1.70;1.00;;;23.50;53.20;;;;;;4959897;28;20111;-68
2022/05/27 12:51:09;;;;;;;1.48;0.77;;;23.60;53.30;;;;;;4960134;28;20472;-68
2022/05/27 12:53:48;;;;;;;0.90;0.60;;;23.50;52.60;;;;;;4958631;28;20514;-68
2022/05/27 13:02:15;;;;;;;0.63;0.57;;;23.60;50.30;;;;;;4960397;28;20041;-68
2022/05/27 13:04:54;;;;;;;0.60;0.60;;;23.60;51.80;;;;;;4957814;28;20047;-68
2022/05/27 13:07:38;;;;;;;0.63;0.60;;;23.60;51.20;;;;;;4959618;28;20085;-68
2022/05/27 13:10:30;;;;;;;0.85;0.70;;;23.60;52.30;;;;;;4960802;28;20037;-68
2022/05/27 13:13:08;;;;;;;2.35;0.60;;;23.60;51.60;;;;;;4952600;28;20031;-68
2022/05/27 13:15:43;;;;;;;0.73;0.55;;;23.70;50.30;;;;;;4971775;28;20046;-67
2022/05/27 13:18:09;;;;;;;;;;;23.70;50.30;;;;;;4959715;28;20027;-69
2022/05/27 13:20:55;;;;;;;1.25;0.65;;;23.70;48.70;;;;;;4957084;28;19925;-68
2022/05/27 13:23:27;;;;;;;0.60;0.60;;;23.80;49.10;;;;;;4957933;28;20030;-68
2022/05/27 13:26:13;;;;;;;5.50;0.60;;;23.80;50.00;;;;;;4958385;28;20530;-68
2022/05/27 13:28:59;;;;;;;1.00;0.70;;;23.80;49.60;;;;;;4957037;28;20043;-68
2022/05/27 13:31:34;;;;;;;1.90;0.47;;;23.80;47.90;;;;;;4955112;28;20093;-67
2022/05/27 13:34:03;;;;;;;1.63;0.75;;;23.80;50.30;;;;;;4956018;28;20149;-68
2022/05/27 13:36:40;;;;;;;2.00;0.63;;;23.80;50.40;;;;;;4954850;28;20846;-68
2022/05/27 13:39:11;;;;;;;1.13;0.60;;;23.80;49.00;;;;;;4957167;28;20055;-69
2022/05/27 13:41:43;;;;;;;0.70;0.63;;;23.80;48.70;;;;;;4957806;28;20461;-69
2022/05/27 13:44:14;;;;;;;0.70;0.52;;;23.70;48.80;;;;;;4955793;28;20050;-68
2022/05/27 13:46:52;;;;;;;1.08;0.68;;;23.80;49.20;;;;;;4957336;28;20182;-66
2022/05/27 13:49:30;;;;;;;1.88;0.60;;;23.70;48.90;;;;;;4955918;28;20119;-69
2022/05/27 13:51:57;;;;;;;1.13;0.50;;;23.70;48.80;;;;;;4956587;28;20114;-67
2022/05/27 13:54:36;;;;;;;4.20;1.10;;;23.70;49.20;;;;;;4954918;28;20046;-67